KEDE/EDE METAR and TAF weather

Enter ICAO airport designator
Station Type Date Time Source
KEDE METAR 2018/04/19 13:15 UTC NOAA

KEDE 191315Z AUTO 25010G16KT 10SM CLR 23/14 A2973 RMK AO2 T02290135


Station Type Date Time Source
KEDE Decoded METAR 2018/04/19 13:15 UTC NOAA

Edenton, Northeastern Regional Airport, NC, United States (KEDE) 36-01-40N 076-34-02W
Apr 19, 2018 - 09:15 AM EDT / 2018.04.19 1315 UTC
Wind: from the WSW (250 degrees) at 12 MPH (10 KT) gusting to 18 MPH (16 KT):0
Visibility: 10 mile(s):0
Sky conditions: clear
Temperature: 73.2 F (22.9 C)
Dew Point: 56.3 F (13.5 C)
Relative Humidity: 55%
Pressure (altimeter): 29.73 in. Hg (1006 hPa)
ob: KEDE 191315Z AUTO 25010G16KT 10SM CLR 23/14 A2973 RMK AO2 T02290135
cycle: 13

Station Type Date Time Source
KEDE TAF UTC NOAA

Error!


Example: see airport list